Fort Caswell, North Carolina
Current Conditions -  °F | °C
As of 11:15 PM on Thursday 27 Nov 2014 (Local Time) from KSUT Reporting Station
Clear Clear  
Wind Chill: 34°   Ceiling: Unl
Heat Index: 39°   Visibility: 10mi
Dew Point: 36°   Wind: 7mph
Humidity: 87%   Direction: 330°NNW
Pressure: 30.25"   Gusts: NA
Location:  33.9216°N, 78.1244°W
Report Text: KSUT 280415Z AUTO 33006KT 10SM CLR 04/02 A3025 RMK AO2 T00400020
Loading
Personal Weather Stations






























Interactive Weather Map New forecast layout! Learn more

10-Day Weather Forecast

Advertisements
Track Severe Weather on mobile